Date,TemperatureHighF,TemperatureAvgF,TemperatureLowF,DewpointHighF,DewpointAvgF,DewpointLowF,HumidityHigh,HumidityAvg,HumidityLow,PressureMaxIn,PressureMinIn,WindSpeedMaxMPH,WindSpeedAvgMPH,GustSpeedMaxMPH,PrecipitationSumIn
2013-1-1,76,67,64,58,52,44,79,61,32,29.94,29.88,0,0,0,0.00
2013-1-2,83,75,63,63,51,44,95,48,27,29.88,29.62,10,0,10,0.00
2013-2-21,79,72,63,45,40,34,51,32,20,29.91,29.85,1,0,2,0.00
2013-2-22,85,70,60,66,51,40,95,55,22,29.88,29.79,6,1,7,0.00
2013-2-23,80,70,62,60,50,42,79,52,27,29.94,29.82,8,2,9,0.00
2013-2-24,82,68,62,64,58,45,94,74,28,29.94,29.88,3,0,3,0.00
2013-2-25,88,74,66,70,60,45,98,68,24,29.88,29.74,3,0,3,0.00
2013-2-26,83,75,68,68,59,50,97,62,33,29.88,29.79,6,0,6,0.00
2013-2-27,85,74,67,71,58,48,98,62,29,29.85,29.62,4,0,5,0.00
2013-2-28,72,66,61,65,49,37,98,59,31,30.06,29.74,10,2,10,0.00
2013-3-1,78,68,60,59,48,39,83,52,26,30.03,29.97,2,0,5,0.00
2013-3-2,80,71,63,67,51,44,97,55,30,30.06,30.00,6,0,6,0.00
2013-3-3,82,71,62,64,53,39,89,56,22,30.06,30.00,0,0,0,0.00
2013-3-4,82,74,67,71,60,47,98,67,31,30.00,29.71,0,0,0,0.00
2013-3-5,84,75,69,73,60,39,98,66,23,29.88,29.68,10,3,11,0.00
2013-3-6,83,73,67,73,60,45,98,68,32,29.85,29.76,13,2,14,0.00
2013-3-7,79,69,63,55,51,43,70,54,32,29.82,29.65,10,1,10,0.00
2013-3-8,89,71,62,66,55,36,98,65,18,29.91,29.59,13,2,15,0.00
2013-3-9,75,66,60,62,46,33,98,53,23,30.18,29.91,10,0,11,0.00
2013-3-10,76,68,63,58,46,40,73,47,28,30.15,30.03,11,0,11,0.00
2013-3-11,77,71,65,65,58,50,96,66,41,30.03,29.88,9,0,11,0.00
2013-3-12,76,71,68,70,66,58,98,86,55,30.00,29.79,8,1,9,0.00
2013-3-13,77,72,70,75,70,65,98,93,69,30.06,29.97,8,0,8,0.00
2013-3-14,77,71,64,70,64,52,98,80,46,29.97,29.65,7,0,9,0.00
2013-3-15,82,71,63,64,56,45,98,64,28,29.76,29.56,14,3,15,0.00
2013-3-16,79,70,66,67,58,48,95,67,40,29.91,29.76,6,0,10,0.00
2013-3-17,82,71,63,67,55,46,95,61,30,29.88,29.82,6,0,7,0.00
2013-3-18,76,68,62,68,55,42,96,65,33,29.88,29.79,8,1,9,0.00
2013-3-19,78,68,62,58,48,40,82,51,28,30.00,29.85,11,1,11,0.00
2013-3-20,81,69,59,57,48,36,88,52,20,29.94,29.79,0,0,0,0.00
2013-3-21,77,69,64,68,58,39,98,70,30,29.88,29.74,8,1,10,0.00
2013-3-22,84,71,64,75,61,45,98,76,26,29.82,29.68,6,0,6,0.00
2013-3-23,70,65,61,64,47,36,98,55,33,29.97,29.74,11,0,11,0.00
2013-3-24,75,64,59,55,44,38,68,48,30,30.06,29.88,0,0,4,0.00
2013-3-25,76,67,59,66,54,43,97,65,34,30.06,29.97,10,0,11,0.00
2013-3-26,77,70,66,70,62,41,97,78,29,30.00,29.68,10,0,11,0.00
2013-3-27,93,74,64,66,50,39,94,48,16,29.82,29.62,7,0,8,0.00
2013-3-28,81,70,62,64,55,45,93,65,31,30.03,29.76,1,0,3,0.00
2013-3-29,68,64,61,63,56,43,98,78,44,30.09,30.00,5,0,6,0.00
2013-3-30,65,63,61,64,62,58,98,96,82,30.12,30.03,10,0,11,0.00
2013-3-31,136,78,63,100,72,62,98,95,85,30.06,29.71,10,0,11,0.00
2013-4-1,112,76,66,100,62,38,97,65,30,29.74,29.65,8,0,12,0.00
2013-4-2,74,68,62,71,55,39,95,67,32,30.12,29.68,14,1,15,0.00
2013-4-3,73,67,62,65,49,32,94,59,25,30.15,30.09,0,0,0,0.00
2013-4-4,73,66,59,45,35,30,58,34,22,30.06,29.97,0,0,0,0.00
2013-4-5,88,70,59,66,32,19,95,27,13,29.97,29.88,0,0,0,0.00
2013-4-6,77,67,58,70,47,16,98,53,15,29.91,29.82,0,0,0,0.00
2013-4-7,73,65,59,56,43,36,75,46,28,29.82,29.65,0,0,0,0.00
2013-4-8,75,64,58,59,39,26,84,43,21,29.79,29.59,13,1,13,0.00
2013-4-9,67,58,54,54,39,26,93,53,23,30.18,29.76,11,0,12,0.00
2013-4-10,68,58,52,53,42,29,92,60,25,30.27,30.15,0,0,0,0.00
2013-4-11,68,60,53,54,42,30,81,55,24,30.27,30.09,0,0,0,0.00
2013-4-12,69,63,55,66,46,31,96,60,25,30.09,29.94,1,0,3,0.00
2013-4-13,76,68,62,71,58,36,98,77,24,29.94,29.85,1,0,1,0.00
2013-4-14,89,70,62,65,45,27,98,52,15,29.88,29.79,1,0,3,0.00
2013-4-15,77,66,56,67,46,27,98,56,24,29.82,29.62,0,0,0,0.00
2013-4-16,84,71,64,72,48,22,98,56,12,29.62,29.44,10,0,12,0.00
2013-4-17,77,69,57,69,47,24,98,53,15,29.65,29.41,12,1,14,0.00
2013-4-18,67,58,53,60,43,32,98,62,27,30.06,29.65,12,1,15,0.00
2013-4-19,69,60,52,58,43,35,92,56,30,30.12,30.03,1,0,1,0.00
2013-4-20,68,63,57,68,53,37,98,73,34,30.12,30.03,4,0,4,0.00
2013-4-21,73,67,61,72,55,36,98,72,26,30.03,29.94,0,0,0,0.00
2013-4-22,72,64,58,66,55,42,98,76,35,29.97,29.91,1,0,4,0.00
2013-4-23,75,66,59,69,50,32,95,62,21,29.97,29.91,0,0,3,0.00
2013-4-24,88,72,63,56,40,30,79,35,15,30.03,29.91,0,0,0,0.00
2013-4-25,98,72,64,41,35,26,41,27,11,30.00,29.94,0,0,1,0.00
2013-4-26,99,76,63,68,31,22,98,25,10,29.94,29.85,3,0,8,0.00
2013-4-27,76,67,63,70,58,42,98,76,32,29.94,29.76,0,0,0,0.00
2013-4-28,79,67,63,66,50,34,98,58,21,30.03,29.76,8,0,9,0.00
2013-4-29,74,64,61,64,51,39,97,65,31,30.12,30.03,0,0,0,0.00
2013-4-30,88,70,58,59,37,22,89,38,13,30.06,29.91,1,0,2,0.00
2013-5-1,98,73,60,60,37,22,81,34,11,29.91,29.79,8,0,10,0.00
2013-5-2,77,66,60,65,50,36,98,62,24,29.94,29.85,3,0,7,0.00
2013-5-3,66,62,58,58,52,41,97,73,47,29.97,29.88,11,1,11,0.00
2013-5-4,72,63,56,43,33,27,62,35,21,30.33,29.76,0,0,1,0.00
2013-5-5,74,61,52,51,39,28,73,48,21,30.27,30.15,0,0,0,0.00
2013-5-6,84,66,54,46,32,17,65,33,14,30.15,29.91,0,0,0,0.00
2013-5-7,87,70,62,32,22,16,32,17,12,29.91,29.79,5,0,7,0.00
2013-5-8,73,66,62,66,36,18,98,42,15,29.82,29.71,10,0,12,0.00
2013-5-9,70,61,52,62,42,25,98,57,23,30.06,29.82,10,0,11,0.00
2013-5-10,73,59,50,43,32,23,56,39,19,30.12,30.03,0,0,0,0.00
2013-5-11,74,64,55,52,34,24,80,36,16,30.09,29.53,1,0,1,0.00
2013-5-12,83,64,54,31,25,21,38,23,14,30.03,29.97,0,0,1,0.00
2013-5-15,69,65,62,64,57,44,97,80,42,29.88,29.85,5,0,5,0.00
2013-5-16,70,63,58,67,54,42,97,76,38,30.09,29.82,7,0,7,0.00
2013-5-17,72,62,54,60,44,29,98,58,22,30.30,30.06,6,0,6,0.00
2013-5-18,67,61,53,64,49,37,98,68,33,30.27,30.03,0,0,1,0.00
2013-5-19,81,67,62,63,50,27,98,69,17,30.03,29.82,0,0,0,0.00
2013-5-20,75,68,61,70,50,32,97,57,24,29.91,29.82,6,0,8,0.00
2013-5-21,76,70,66,73,64,48,97,85,42,29.91,29.85,0,0,2,0.00
2013-5-22,76,70,65,75,63,42,98,83,34,29.91,29.79,10,0,10,0.00
2013-5-23,75,66,60,65,51,34,95,66,23,30.03,29.82,7,0,10,0.00
2013-5-24,70,63,58,66,55,40,98,78,35,29.97,29.85,0,0,0,0.00
2013-5-25,77,64,57,66,51,38,98,67,26,29.85,29.76,8,0,8,0.00
2013-5-26,64,61,58,52,44,38,76,54,39,29.79,29.68,6,0,7,0.00
2013-5-27,72,63,57,64,44,26,98,57,19,29.85,29.65,12,1,12,0.00
2013-5-28,75,62,54,58,34,24,89,39,18,29.91,29.79,10,0,10,0.00
2013-5-29,75,63,54,47,38,28,70,45,18,29.91,29.71,0,0,1,0.00
2013-5-30,74,64,57,44,37,27,51,39,18,29.88,29.74,8,0,11,0.00
2013-5-31,71,61,54,58,43,33,89,55,25,29.88,29.62,0,0,0,0.00
2013-6-1,69,58,53,49,31,20,81,38,17,29.62,29.50,10,0,17,0.00
2013-6-2,59,52,47,36,26,20,60,36,24,29.68,29.41,13,0,13,0.00
2013-6-3,64,54,44,30,23,18,41,31,21,29.94,29.68,13,1,13,0.00
2013-6-4,66,58,51,32,26,23,38,30,22,30.00,29.88,12,2,14,0.00
2013-6-5,67,59,53,54,40,28,94,54,25,30.24,30.09,10,1,10,0.00
2013-6-6,70,58,50,57,41,28,97,59,22,30.18,29.97,3,0,3,0.00
2013-6-7,68,58,53,56,46,35,97,69,31,29.97,29.71,7,0,9,0.00
2013-6-8,66,58,52,60,42,23,98,62,26,30.00,29.59,13,4,14,0.00
2013-6-9,66,55,49,48,29,23,84,39,23,30.30,30.00,0,0,0,0.00
2013-6-10,68,55,47,41,27,19,59,36,17,30.27,30.00,0,0,0,0.00
2013-6-11,79,66,53,27,20,15,32,17,13,30.00,29.85,0,0,0,0.00
2013-6-12,83,65,56,58,31,16,94,35,13,29.85,29.71,0,0,0,0.00
2013-6-13,68,59,55,55,34,24,94,41,26,29.85,29.71,0,0,0,0.00
2013-6-14,65,58,53,57,36,24,93,48,23,30.03,29.76,11,2,11,0.00
2013-6-15,63,56,51,55,40,31,87,57,33,30.27,30.03,8,8,8,0.00
2013-6-16,70,57,50,54,44,28,93,66,22,30.30,30.21,8,8,8,0.00
2013-6-17,67,60,53,60,52,39,98,77,37,30.27,29.97,8,2,8,0.00
2013-6-18,82,70,57,55,25,17,90,21,13,29.97,29.65,0,0,0,0.00
2013-6-19,66,59,55,44,37,25,60,44,27,29.97,29.74,0,0,0,0.00
2013-6-20,69,58,52,53,38,24,92,52,24,30.03,29.94,0,0,0,0.00
2013-6-21,82,62,54,58,41,23,97,58,14,30.00,29.68,0,0,0,0.00
2013-6-22,66,57,53,41,32,27,55,39,25,30.18,30.00,0,0,0,0.00
2013-6-23,75,60,54,59,45,22,98,66,15,30.00,29.76,0,0,0,0.00
2013-6-24,84,68,58,60,34,18,98,38,12,29.76,29.56,0,0,0,0.00
2013-6-25,68,61,54,46,29,23,62,30,23,29.79,29.56,0,0,0,0.00
2013-6-26,68,58,52,51,24,19,92,29,17,29.97,29.79,0,0,0,0.00
2013-6-27,64,57,51,63,45,33,98,68,44,30.18,29.94,0,0,0,0.00
2013-6-28,68,55,47,46,36,28,84,52,26,30.15,29.50,0,0,0,0.00
2013-6-29,64,56,50,58,45,34,97,68,35,29.94,29.85,0,0,0,0.00
2013-6-30,67,57,52,56,43,28,96,63,24,30.00,29.88,0,0,0,0.00
2013-7-1,63,58,53,58,50,39,96,78,56,30.03,29.97,0,0,0,0.00
2013-7-2,66,59,55,64,55,44,98,89,52,30.00,29.91,0,0,0,0.00
2013-7-3,59,58,57,58,58,55,97,97,94,30.00,29.97,0,0,0,0.00
2013-7-4,63,59,57,62,48,39,98,69,45,30.18,29.94,0,0,0,0.00
2013-7-5,72,61,57,55,44,32,88,56,25,29.94,29.74,0,0,0,0.00
2013-7-6,74,63,54,62,37,31,97,42,22,29.88,29.76,0,0,0,0.00
2013-7-7,71,61,55,52,33,20,81,39,22,30.06,29.88,0,0,0,0.00
2013-7-8,68,60,53,56,41,33,92,53,28,30.15,29.97,0,0,0,0.00
2013-7-9,68,60,57,62,54,43,97,82,45,30.24,30.09,0,0,0,0.00
2013-7-10,68,61,57,64,55,37,97,82,36,30.24,30.03,0,0,0,0.00
2013-7-11,85,67,57,54,31,26,83,27,14,30.03,29.88,0,0,0,0.00
2013-7-12,86,75,66,33,26,22,23,17,13,29.88,29.79,0,0,0,0.00
2013-7-13,74,63,55,62,42,23,97,52,16,30.09,29.76,0,0,0,0.00
2013-7-14,60,57,53,59,52,40,97,83,50,30.12,29.94,0,0,0,0.00
2013-7-15,68,61,56,61,52,36,97,77,33,29.94,29.74,0,0,0,0.00
2013-7-16,70,60,54,55,38,31,87,46,25,30.06,29.88,0,0,0,0.00
2013-7-17,65,60,56,55,48,38,88,65,38,30.06,29.88,0,0,0,0.00
2013-7-18,62,59,56,51,39,23,72,52,25,29.88,29.74,0,0,0,0.00
2013-7-19,68,60,57,43,34,23,52,39,27,29.97,29.74,0,0,0,0.00
2013-7-20,65,62,54,43,36,32,62,40,29,30.21,29.94,0,0,0,0.00
2013-7-21,72,59,54,43,38,28,65,48,22,30.24,30.03,0,0,0,0.00
2013-7-22,64,60,51,41,33,28,61,38,26,30.03,29.65,0,0,0,0.00
2013-7-23,64,64,64,28,28,28,26,26,26,29.94,29.59,0,0,0,0.00
2013-7-24,64,64,64,28,28,28,26,26,26,30.15,29.94,0,0,0,0.00
2013-7-26,0,0,0,0,0,0,0,0,100,29.79,29.62,0,0,0,0.00
2013-7-27,0,0,0,0,0,0,0,0,100,29.85,29.62,0,0,0,0.00
2013-7-28,0,0,0,0,0,0,0,0,100,30.18,29.85,0,0,0,0.00
2013-7-29,0,0,0,0,0,0,0,0,100,30.36,30.18,0,0,0,0.00
2013-7-30,0,0,0,0,0,0,0,0,100,30.36,30.24,0,0,0,0.00
2013-7-31,0,0,0,0,0,0,0,0,100,30.24,30.12,0,0,0,0.00
2013-8-1,0,0,0,0,0,0,0,0,100,30.12,30.06,0,0,0,0.00
2013-8-2,0,0,0,0,0,0,0,0,100,30.18,30.00,0,0,0,0.00
2013-8-3,0,0,0,0,0,0,0,0,100,30.18,30.03,0,0,0,0.00
2013-8-4,0,0,0,0,0,0,0,0,100,30.06,29.97,0,0,0,0.00
2013-8-5,0,0,0,0,0,0,0,0,100,30.06,29.91,0,0,0,0.00
2013-8-6,0,0,0,0,0,0,0,0,100,29.91,29.79,0,0,0,0.00
2013-8-7,0,0,0,0,0,0,0,0,100,29.88,29.68,0,0,0,0.00
2013-8-8,0,0,0,0,0,0,0,0,100,30.12,29.88,0,0,0,0.00
2013-8-9,0,0,0,0,0,0,0,0,100,30.18,30.09,0,0,0,0.00
2013-8-10,0,0,0,0,0,0,0,0,100,30.12,29.76,0,0,0,0.00
2013-8-11,0,0,0,0,0,0,0,0,100,29.82,29.65,0,0,0,0.00
2013-8-12,0,0,0,0,0,0,0,0,100,29.82,29.76,0,0,0,0.00
2013-8-13,0,0,0,0,0,0,0,0,100,29.68,29.56,0,0,0,0.00
2013-8-14,0,0,0,0,0,0,0,0,100,29.85,29.65,0,0,0,0.00
2013-8-15,0,0,0,0,0,0,0,0,100,29.82,29.65,0,0,0,0.00
2013-8-16,0,0,0,0,0,0,0,0,100,29.82,29.50,0,0,0,0.00
2013-8-17,0,0,0,0,0,0,0,0,100,29.88,29.50,0,0,0,0.00
2013-8-18,0,0,0,0,0,0,0,0,100,30.18,29.88,0,0,0,0.00
2013-8-19,0,0,0,0,0,0,0,0,100,30.15,29.94,0,0,0,0.00
2013-8-20,0,0,0,0,0,0,0,0,100,29.94,29.74,0,0,0,0.00
2013-8-21,0,0,0,0,0,0,0,0,100,30.00,29.62,0,0,0,0.00
2013-8-22,0,0,0,0,0,0,0,0,100,30.09,30.00,0,0,0,0.00
2013-8-23,0,0,0,0,0,0,0,0,100,30.06,29.91,0,0,0,0.00
2013-8-24,0,0,0,0,0,0,0,0,100,30.18,29.94,0,0,0,0.00
2013-8-25,0,0,0,0,0,0,0,0,100,30.15,29.76,0,0,0,0.00
2013-8-26,0,0,0,0,0,0,0,0,100,29.79,29.62,0,0,0,0.00
2013-8-27,0,0,0,0,0,0,0,0,100,29.76,29.14,5,0,6,0.00
2013-8-28,0,0,0,0,0,0,0,0,100,29.76,29.56,10,1,10,0.00
2013-8-29,0,0,0,0,0,0,0,0,100,29.74,29.62,6,1,6,0.00
2013-8-30,0,0,0,0,0,0,0,0,100,29.74,29.65,10,4,12,0.00
2013-8-31,0,0,0,0,0,0,0,0,100,29.91,29.65,16,7,16,0.00
2013-9-1,0,0,0,0,0,0,0,0,100,30.03,29.91,11,3,14,0.00
2013-9-2,0,0,0,0,0,0,0,0,100,29.97,29.74,6,0,6,0.00
2013-9-3,0,0,0,0,0,0,0,0,100,30.15,29.85,8,3,11,0.00
2013-9-4,0,0,0,0,0,0,0,0,100,30.21,30.09,7,1,8,0.00
2013-9-5,0,0,0,0,0,0,0,0,100,30.18,30.03,7,2,8,0.00
2013-9-9,0,0,0,0,0,0,0,0,100,30.06,30.00,6,1,7,0.00
2013-9-10,0,0,0,0,0,0,0,0,100,30.06,29.94,7,2,8,0.00
2013-9-11,0,0,0,0,0,0,0,0,100,30.09,30.00,6,2,8,0.00
2013-9-12,0,0,0,0,0,0,0,0,100,30.00,29.82,0,0,0,0.00
2013-9-13,0,0,0,0,0,0,0,0,100,29.82,29.68,0,0,0,0.00
2013-9-14,0,0,0,0,0,0,0,0,100,29.85,29.62,11,2,12,0.00
2013-9-15,0,0,0,0,0,0,0,0,100,29.91,29.56,10,0,10,0.00
2013-9-16,0,0,0,0,0,0,0,0,100,30.00,29.88,0,0,0,0.00
2013-9-17,0,0,0,0,0,0,0,0,100,29.94,29.82,0,0,0,0.00
2013-9-18,0,0,0,0,0,0,0,0,100,29.94,29.71,0,0,0,0.00
2013-9-19,0,0,0,0,0,0,0,0,100,29.71,29.41,0,0,0,0.00
2013-9-20,0,0,0,0,0,0,0,0,100,29.94,29.50,0,0,0,0.00
2013-9-21,0,0,0,0,0,0,0,0,100,30.15,29.94,0,0,0,0.00
2013-9-22,0,0,0,0,0,0,0,0,100,30.03,29.94,0,0,0,0.00
2013-9-23,0,0,0,0,0,0,0,0,100,29.94,29.74,0,0,0,0.00
2013-9-24,0,0,0,0,0,0,0,0,100,29.94,29.88,0,0,0,0.00
2013-9-25,0,0,0,0,0,0,0,0,100,29.94,29.82,0,0,0,0.00
2013-9-26,0,0,0,0,0,0,0,0,100,29.91,29.68,0,0,0,0.00
2013-9-27,0,0,0,0,0,0,0,0,100,29.85,29.65,13,0,15,0.00
2013-9-28,0,0,0,0,0,0,0,0,100,30.18,29.82,0,0,0,0.00
2013-9-29,0,0,0,0,0,0,0,0,100,30.30,30.15,0,0,0,0.00
2013-9-30,0,0,0,0,0,0,0,0,100,30.27,29.88,0,0,0,0.00
2013-10-1,0,0,0,0,0,0,0,0,100,29.88,29.82,0,0,0,0.00
2013-10-4,0,0,0,0,0,0,0,0,100,30.00,29.94,0,0,0,0.00
2013-10-5,0,0,0,0,0,0,0,0,100,30.09,29.88,0,0,0,0.00
2013-10-6,0,0,0,0,0,0,0,0,100,30.21,30.09,0,0,0,0.00
2013-10-7,0,0,0,0,0,0,0,0,100,30.18,30.06,0,0,0,0.00
2013-10-8,0,0,0,0,0,0,0,0,100,30.06,29.85,0,0,0,0.00
2013-10-9,0,0,0,0,0,0,0,0,100,29.94,29.85,0,0,0,0.00
2013-10-10,0,0,0,0,0,0,0,0,100,29.88,29.79,0,0,0,0.00
2013-10-11,0,0,0,0,0,0,0,0,100,29.82,29.74,9,1,9,0.00
2013-10-12,0,0,0,0,0,0,0,0,100,30.03,29.71,13,4,14,0.00
2013-10-13,0,0,0,0,0,0,0,0,100,30.09,30.00,8,3,10,0.00
2013-10-14,0,0,0,0,0,0,0,0,100,30.12,30.00,8,2,8,0.00
2013-10-15,0,0,0,0,0,0,0,0,100,29.97,29.94,6,2,6,0.00
2013-10-16,0,0,0,0,0,0,0,0,100,30.15,29.97,8,2,10,0.00
2013-10-17,0,0,0,0,0,0,0,0,100,30.12,30.06,0,0,0,0.00
2013-10-18,0,0,0,0,0,0,0,0,100,30.12,30.06,9,1,10,0.00
2013-10-19,0,0,0,0,0,0,0,0,100,30.09,29.88,10,3,10,0.00
2013-10-20,0,0,0,0,0,0,0,0,100,29.88,29.82,7,1,9,0.00
2013-10-21,0,0,0,0,0,0,0,0,100,30.06,29.85,10,2,10,0.00
2013-10-22,0,0,0,0,0,0,0,0,100,30.03,29.94,6,1,6,0.00
2013-10-25,0,0,0,0,0,0,0,0,100,29.85,29.74,6,0,6,0.00
2013-10-26,0,0,0,0,0,0,0,0,100,29.97,29.79,9,2,10,0.00
2013-10-27,0,0,0,0,0,0,0,0,100,30.00,29.88,9,3,9,0.00
2013-10-28,0,0,0,0,0,0,0,0,100,29.88,29.82,6,0,6,0.00
2013-10-29,0,0,0,0,0,0,0,0,100,29.85,29.68,0,0,0,0.00
2013-10-30,0,0,0,0,0,0,0,0,100,29.68,29.59,0,0,0,0.00
2013-10-31,0,0,0,0,0,0,0,0,100,29.68,29.56,13,4,14,0.00
2013-11-1,0,0,0,0,0,0,0,0,100,30.03,29.65,8,2,8,0.00
2013-11-2,0,0,0,0,0,0,0,0,100,30.09,30.00,6,1,6,0.00
2013-11-3,0,0,0,0,0,0,0,0,100,30.00,29.88,6,1,6,0.00
2013-11-4,0,0,0,0,0,0,0,0,100,29.91,29.71,3,0,5,0.00
2013-11-5,0,0,0,0,0,0,0,0,100,29.82,29.74,6,1,7,0.00
2013-11-6,0,0,0,0,0,0,0,0,100,29.76,29.59,10,2,10,0.00
2013-11-7,0,0,0,0,0,0,0,0,100,29.91,29.71,14,4,14,0.00
2013-11-8,0,0,0,0,0,0,0,0,100,29.94,29.85,10,2,10,0.00
2013-11-9,0,0,0,0,0,0,0,0,100,30.03,29.88,0,0,0,0.00
2013-11-10,0,0,0,0,0,0,0,0,100,30.03,30.00,5,0,5,0.00
2013-11-11,0,0,0,0,0,0,0,0,100,30.03,29.76,8,2,8,0.00
2013-11-12,0,0,0,0,0,0,0,0,100,29.76,29.68,6,2,6,0.00
2013-11-13,0,0,0,0,0,0,0,0,100,29.76,29.65,8,1,8,0.00
2013-11-14,0,0,0,0,0,0,0,0,100,29.85,29.68,9,1,9,0.00
2013-11-15,0,0,0,0,0,0,0,0,100,29.88,29.76,11,3,12,0.00
2013-11-16,0,0,0,0,0,0,0,0,100,29.79,29.65,10,3,11,0.00
2013-11-17,0,0,0,0,0,0,0,0,100,29.79,29.68,9,3,11,0.00
2013-11-18,0,0,0,0,0,0,0,0,100,29.91,29.91,4,2,4,0.00
2013-11-19,0,0,0,0,0,0,0,0,100,29.53,29.41,4,1,5,0.00
2013-11-20,0,0,0,0,0,0,0,0,100,29.97,29.50,10,3,10,0.00
2013-11-21,0,0,0,0,0,0,0,0,100,30.03,29.88,6,2,6,0.00
2013-11-22,0,0,0,0,0,0,0,0,100,29.97,29.74,5,0,5,0.00
2013-11-23,0,0,0,0,0,0,0,0,100,30.09,29.94,6,0,6,0.00
2013-11-24,0,0,0,0,0,0,0,0,100,30.06,29.68,6,2,7,0.00
2013-11-25,0,0,0,0,0,0,0,0,100,29.76,29.56,7,1,7,0.00
2013-11-26,0,0,0,0,0,0,0,0,100,30.03,29.76,6,1,6,0.00
2013-11-27,0,0,0,0,0,0,0,0,100,30.15,30.00,4,0,4,0.00
2013-11-28,0,0,0,0,0,0,0,0,100,30.15,29.94,8,2,8,0.00
2013-11-29,0,0,0,0,0,0,0,0,100,29.94,29.71,4,1,5,0.00
2013-11-30,0,0,0,0,0,0,0,0,100,30.03,29.82,6,1,6,0.00
2013-12-1,0,0,0,0,0,0,0,0,100,30.03,29.97,8,3,8,0.00
2013-12-2,0,0,0,0,0,0,0,0,100,29.97,29.82,7,2,8,0.00
2013-12-3,0,0,0,0,0,0,0,0,100,29.91,29.76,6,2,8,0.00
2013-12-4,0,0,0,0,0,0,0,0,100,30.12,29.88,9,3,9,0.00
2013-12-5,0,0,0,0,0,0,0,0,100,30.12,30.06,5,1,6,0.00
2013-12-6,0,0,0,0,0,0,0,0,100,30.12,30.06,6,1,6,0.00
2013-12-7,0,0,0,0,0,0,0,0,100,30.09,29.88,10,3,10,0.00
2013-12-8,0,0,0,0,0,0,0,0,100,29.94,29.88,8,3,8,0.00
2013-12-9,0,0,0,0,0,0,0,0,100,29.91,29.85,6,2,6,0.00
2013-12-10,0,0,0,0,0,0,0,0,100,29.91,29.85,6,1,6,0.00
2013-12-11,0,0,0,0,0,0,0,0,100,29.91,29.85,7,2,7,0.00
2013-12-12,0,0,0,0,0,0,0,0,100,29.88,29.76,8,3,9,0.00
2013-12-13,0,0,0,0,0,0,0,0,100,29.82,29.68,6,1,6,0.00
2013-12-14,0,0,0,0,0,0,0,0,100,29.82,29.74,5,0,5,0.00
2013-12-15,0,0,0,0,0,0,0,0,100,29.88,29.74,7,1,7,0.00
2013-12-16,0,0,0,0,0,0,0,0,100,29.97,29.88,4,0,4,0.00
2013-12-17,0,0,0,0,0,0,0,0,100,30.03,29.91,3,0,4,0.00
2013-12-18,0,0,0,0,0,0,0,0,100,30.00,29.88,5,2,6,0.00
2013-12-19,0,0,0,0,0,0,0,0,100,29.88,29.79,4,0,4,0.00
2013-12-20,0,0,0,0,0,0,0,0,100,29.85,29.68,0,0,0,0.00
2013-12-21,0,0,0,0,0,0,0,0,100,30.00,29.85,0,0,0,0.00
2013-12-22,0,0,0,0,0,0,0,0,100,29.97,29.88,0,0,0,0.00
2013-12-23,0,0,0,0,0,0,0,0,100,29.94,29.88,0,0,0,0.00
2013-12-24,0,0,0,0,0,0,0,0,100,29.88,29.85,0,0,0,0.00
2013-12-26,0,0,0,0,0,0,0,0,100,29.94,29.38,3,0,3,0.00
2013-12-27,0,0,0,0,0,0,0,0,100,29.91,29.62,0,0,0,0.00
2013-12-28,0,0,0,0,0,0,0,0,100,30.00,29.71,2,0,3,0.00
2013-12-29,0,0,0,0,0,0,0,0,100,30.00,29.82,0,0,0,0.00
2013-12-30,0,0,0,0,0,0,0,0,100,29.94,29.79,0,0,0,0.00
2013-12-31,0,0,0,0,0,0,0,0,100,29.94,29.85,0,0,0,0.00
2014-1-1,0,0,0,0,0,0,0,0,100,29.85,29.71,0,0,0,0.00
2014-1-2,0,0,0,0,0,0,0,0,100,29.85,29.74,0,0,0,0.00